sensor_id;sensor_type;location;lat;lon;timestamp;P1;durP1;ratioP1;P2;durP2;ratioP2
46455;SDS011;32154;47.160;8.120;2022-07-23T00:04:22;9.43;;;6.78;;
46455;SDS011;32154;47.160;8.120;2022-07-23T00:09:43;11.65;;;7.75;;
46455;SDS011;32154;47.160;8.120;2022-07-23T00:14:46;10.20;;;6.63;;
46455;SDS011;32154;47.160;8.120;2022-07-23T00:19:49;8.85;;;6.38;;
46455;SDS011;32154;47.160;8.120;2022-07-23T00:25:11;9.15;;;7.22;;
46455;SDS011;32154;47.160;8.120;2022-07-23T00:30:48;12.77;;;7.38;;
46455;SDS011;32154;47.160;8.120;2022-07-23T00:36:09;9.88;;;6.78;;
46455;SDS011;32154;47.160;8.120;2022-07-23T00:41:11;9.70;;;7.13;;
46455;SDS011;32154;47.160;8.120;2022-07-23T00:46:32;9.88;;;7.07;;
46455;SDS011;32154;47.160;8.120;2022-07-23T00:51:35;9.57;;;6.78;;
46455;SDS011;32154;47.160;8.120;2022-07-23T00:56:56;9.52;;;6.43;;
46455;SDS011;32154;47.160;8.120;2022-07-23T01:01:58;9.93;;;7.35;;
46455;SDS011;32154;47.160;8.120;2022-07-23T01:07:00;10.80;;;7.22;;
46455;SDS011;32154;47.160;8.120;2022-07-23T01:12:03;8.23;;;6.15;;
46455;SDS011;32154;47.160;8.120;2022-07-23T01:17:26;7.85;;;6.47;;
46455;SDS011;32154;47.160;8.120;2022-07-23T01:22:28;10.50;;;7.25;;
46455;SDS011;32154;47.160;8.120;2022-07-23T01:27:32;10.65;;;6.55;;
46455;SDS011;32154;47.160;8.120;2022-07-23T01:32:37;9.07;;;6.38;;
46455;SDS011;32154;47.160;8.120;2022-07-23T01:37:58;10.05;;;6.60;;
46455;SDS011;32154;47.160;8.120;2022-07-23T01:43:18;10.25;;;7.18;;
46455;SDS011;32154;47.160;8.120;2022-07-23T01:48:39;9.77;;;7.15;;
46455;SDS011;32154;47.160;8.120;2022-07-23T01:54:00;11.23;;;7.57;;
46455;SDS011;32154;47.160;8.120;2022-07-23T01:59:04;11.52;;;8.15;;
46455;SDS011;32154;47.160;8.120;2022-07-23T02:04:25;11.02;;;6.70;;
46455;SDS011;32154;47.160;8.120;2022-07-23T02:09:45;12.63;;;7.80;;
46455;SDS011;32154;47.160;8.120;2022-07-23T02:14:48;12.50;;;7.85;;
46455;SDS011;32154;47.160;8.120;2022-07-23T02:19:50;9.18;;;6.45;;
46455;SDS011;32154;47.160;8.120;2022-07-23T02:24:52;11.20;;;6.20;;
46455;SDS011;32154;47.160;8.120;2022-07-23T02:29:55;9.32;;;7.40;;
46455;SDS011;32154;47.160;8.120;2022-07-23T02:34:59;9.50;;;7.60;;
46455;SDS011;32154;47.160;8.120;2022-07-23T02:40:01;15.90;;;9.52;;
46455;SDS011;32154;47.160;8.120;2022-07-23T02:45:06;10.15;;;7.10;;
46455;SDS011;32154;47.160;8.120;2022-07-23T02:50:08;10.30;;;8.00;;
46455;SDS011;32154;47.160;8.120;2022-07-23T02:55:13;13.00;;;7.65;;
46455;SDS011;32154;47.160;8.120;2022-07-23T03:00:15;12.57;;;8.07;;
46455;SDS011;32154;47.160;8.120;2022-07-23T03:05:18;12.45;;;7.80;;
46455;SDS011;32154;47.160;8.120;2022-07-23T03:10:38;11.73;;;8.30;;
46455;SDS011;32154;47.160;8.120;2022-07-23T03:15:59;11.25;;;7.45;;
46455;SDS011;32154;47.160;8.120;2022-07-23T03:21:03;10.95;;;7.05;;
46455;SDS011;32154;47.160;8.120;2022-07-23T03:26:05;10.50;;;7.68;;
46455;SDS011;32154;47.160;8.120;2022-07-23T03:31:27;10.80;;;7.53;;
46455;SDS011;32154;47.160;8.120;2022-07-23T03:36:29;12.23;;;8.32;;
46455;SDS011;32154;47.160;8.120;2022-07-23T03:41:32;16.80;;;8.65;;
46455;SDS011;32154;47.160;8.120;2022-07-23T03:46:53;12.02;;;8.45;;
46455;SDS011;32154;47.160;8.120;2022-07-23T03:51:56;12.93;;;9.45;;
46455;SDS011;32154;47.160;8.120;2022-07-23T03:56:58;9.23;;;6.47;;
46455;SDS011;32154;47.160;8.120;2022-07-23T04:02:19;11.30;;;8.25;;
46455;SDS011;32154;47.160;8.120;2022-07-23T04:07:22;8.27;;;6.90;;
46455;SDS011;32154;47.160;8.120;2022-07-23T04:12:24;8.70;;;7.18;;
46455;SDS011;32154;47.160;8.120;2022-07-23T04:17:27;9.95;;;6.93;;
46455;SDS011;32154;47.160;8.120;2022-07-23T04:22:48;10.30;;;7.28;;
46455;SDS011;32154;47.160;8.120;2022-07-23T04:28:09;10.63;;;7.75;;
46455;SDS011;32154;47.160;8.120;2022-07-23T04:33:12;11.82;;;8.93;;
46455;SDS011;32154;47.160;8.120;2022-07-23T04:38:32;11.30;;;7.85;;
46455;SDS011;32154;47.160;8.120;2022-07-23T04:43:37;11.25;;;8.35;;
46455;SDS011;32154;47.160;8.120;2022-07-23T04:48:57;13.07;;;9.07;;
46455;SDS011;32154;47.160;8.120;2022-07-23T04:54:19;10.40;;;7.50;;
46455;SDS011;32154;47.160;8.120;2022-07-23T04:59:22;9.98;;;7.80;;
46455;SDS011;32154;47.160;8.120;2022-07-23T05:04:31;11.90;;;7.90;;
46455;SDS011;32154;47.160;8.120;2022-07-23T05:09:36;13.70;;;8.13;;
46455;SDS011;32154;47.160;8.120;2022-07-23T05:14:57;10.02;;;7.32;;
46455;SDS011;32154;47.160;8.120;2022-07-23T05:20:17;11.10;;;8.27;;
46455;SDS011;32154;47.160;8.120;2022-07-23T05:25:39;14.88;;;8.88;;
46455;SDS011;32154;47.160;8.120;2022-07-23T05:30:59;9.75;;;7.57;;
46455;SDS011;32154;47.160;8.120;2022-07-23T05:36:04;11.00;;;7.97;;
46455;SDS011;32154;47.160;8.120;2022-07-23T05:41:10;13.02;;;9.00;;
46455;SDS011;32154;47.160;8.120;2022-07-23T05:46:12;11.60;;;8.02;;
46455;SDS011;32154;47.160;8.120;2022-07-23T05:51:23;9.40;;;7.75;;
46455;SDS011;32154;47.160;8.120;2022-07-23T05:56:27;10.38;;;7.72;;
46455;SDS011;32154;47.160;8.120;2022-07-23T06:01:48;10.95;;;8.30;;
46455;SDS011;32154;47.160;8.120;2022-07-23T06:06:51;10.45;;;7.68;;
46455;SDS011;32154;47.160;8.120;2022-07-23T06:12:12;11.75;;;7.78;;
46455;SDS011;32154;47.160;8.120;2022-07-23T06:17:14;9.85;;;8.10;;
46455;SDS011;32154;47.160;8.120;2022-07-23T06:22:35;13.05;;;7.07;;
46455;SDS011;32154;47.160;8.120;2022-07-23T06:27:39;12.55;;;7.60;;
46455;SDS011;32154;47.160;8.120;2022-07-23T06:32:59;10.82;;;8.05;;
46455;SDS011;32154;47.160;8.120;2022-07-23T06:38:21;14.68;;;10.45;;
46455;SDS011;32154;47.160;8.120;2022-07-23T06:43:23;10.75;;;7.35;;
46455;SDS011;32154;47.160;8.120;2022-07-23T06:48:28;11.27;;;8.13;;
46455;SDS011;32154;47.160;8.120;2022-07-23T06:53:31;8.18;;;7.18;;
46455;SDS011;32154;47.160;8.120;2022-07-23T06:58:35;11.85;;;8.73;;
46455;SDS011;32154;47.160;8.120;2022-07-23T07:03:41;15.23;;;8.52;;
46455;SDS011;32154;47.160;8.120;2022-07-23T07:09:03;11.40;;;7.72;;
46455;SDS011;32154;47.160;8.120;2022-07-23T07:14:07;9.73;;;6.40;;
46455;SDS011;32154;47.160;8.120;2022-07-23T07:19:12;8.52;;;6.68;;
46455;SDS011;32154;47.160;8.120;2022-07-23T07:24:32;9.57;;;7.40;;
46455;SDS011;32154;47.160;8.120;2022-07-23T07:29:57;9.05;;;7.40;;
46455;SDS011;32154;47.160;8.120;2022-07-23T07:34:59;11.18;;;8.05;;
46455;SDS011;32154;47.160;8.120;2022-07-23T07:40:02;6.72;;;5.10;;
46455;SDS011;32154;47.160;8.120;2022-07-23T07:45:05;10.20;;;7.85;;
46455;SDS011;32154;47.160;8.120;2022-07-23T07:50:08;10.15;;;7.03;;
46455;SDS011;32154;47.160;8.120;2022-07-23T07:55:13;9.40;;;7.55;;
46455;SDS011;32154;47.160;8.120;2022-07-23T08:00:34;9.65;;;6.30;;
46455;SDS011;32154;47.160;8.120;2022-07-23T08:05:36;10.15;;;6.82;;
46455;SDS011;32154;47.160;8.120;2022-07-23T08:10:39;11.52;;;6.65;;
46455;SDS011;32154;47.160;8.120;2022-07-23T08:15:41;7.88;;;6.40;;
46455;SDS011;32154;47.160;8.120;2022-07-23T08:21:03;10.40;;;7.80;;
46455;SDS011;32154;47.160;8.120;2022-07-23T08:26:24;7.07;;;6.32;;
46455;SDS011;32154;47.160;8.120;2022-07-23T08:31:26;8.98;;;5.85;;
46455;SDS011;32154;47.160;8.120;2022-07-23T08:36:29;11.75;;;8.32;;
46455;SDS011;32154;47.160;8.120;2022-07-23T08:41:31;9.32;;;6.85;;
46455;SDS011;32154;47.160;8.120;2022-07-23T08:46:36;9.75;;;7.88;;
46455;SDS011;32154;47.160;8.120;2022-07-23T08:56:46;8.63;;;7.18;;
46455;SDS011;32154;47.160;8.120;2022-07-23T09:01:50;9.45;;;6.32;;
46455;SDS011;32154;47.160;8.120;2022-07-23T09:06:53;7.13;;;5.55;;
46455;SDS011;32154;47.160;8.120;2022-07-23T09:12:04;8.48;;;6.75;;
46455;SDS011;32154;47.160;8.120;2022-07-23T09:17:26;9.30;;;6.47;;
46455;SDS011;32154;47.160;8.120;2022-07-23T09:22:29;11.13;;;8.52;;
46455;SDS011;32154;47.160;8.120;2022-07-23T09:33:15;7.82;;;6.18;;
46455;SDS011;32154;47.160;8.120;2022-07-23T09:38:47;9.70;;;6.38;;
46455;SDS011;32154;47.160;8.120;2022-07-23T09:43:55;8.15;;;6.05;;
46455;SDS011;32154;47.160;8.120;2022-07-23T09:48:59;8.15;;;6.57;;
46455;SDS011;32154;47.160;8.120;2022-07-23T09:54:35;7.25;;;5.85;;
46455;SDS011;32154;47.160;8.120;2022-07-23T09:59:40;6.45;;;5.13;;
46455;SDS011;32154;47.160;8.120;2022-07-23T10:04:44;6.53;;;4.90;;
46455;SDS011;32154;47.160;8.120;2022-07-23T10:09:57;7.15;;;5.78;;
46455;SDS011;32154;47.160;8.120;2022-07-23T10:15:22;7.78;;;5.65;;
46455;SDS011;32154;47.160;8.120;2022-07-23T10:20:27;8.20;;;5.90;;
46455;SDS011;32154;47.160;8.120;2022-07-23T10:37:07;6.43;;;4.70;;
46455;SDS011;32154;47.160;8.120;2022-07-23T10:42:39;8.90;;;5.93;;
46455;SDS011;32154;47.160;8.120;2022-07-23T10:47:44;9.45;;;7.05;;
46455;SDS011;32154;47.160;8.120;2022-07-23T10:58:08;8.38;;;6.50;;
46455;SDS011;32154;47.160;8.120;2022-07-23T11:03:30;7.75;;;6.40;;
46455;SDS011;32154;47.160;8.120;2022-07-23T11:08:34;9.43;;;7.28;;
46455;SDS011;32154;47.160;8.120;2022-07-23T11:13:55;7.68;;;6.40;;
46455;SDS011;32154;47.160;8.120;2022-07-23T11:18:58;8.95;;;6.45;;
46455;SDS011;32154;47.160;8.120;2022-07-23T11:34:32;6.93;;;5.93;;
46455;SDS011;32154;47.160;8.120;2022-07-23T11:39:36;10.18;;;7.43;;
46455;SDS011;32154;47.160;8.120;2022-07-23T11:44:41;8.85;;;6.10;;
46455;SDS011;32154;47.160;8.120;2022-07-23T11:50:09;6.25;;;4.50;;
46455;SDS011;32154;47.160;8.120;2022-07-23T11:55:30;5.43;;;4.80;;
46455;SDS011;32154;47.160;8.120;2022-07-23T12:00:33;7.43;;;5.30;;
46455;SDS011;32154;47.160;8.120;2022-07-23T12:05:41;6.07;;;5.47;;
46455;SDS011;32154;47.160;8.120;2022-07-23T12:10:44;7.03;;;5.22;;
46455;SDS011;32154;47.160;8.120;2022-07-23T12:15:49;8.23;;;6.65;;
46455;SDS011;32154;47.160;8.120;2022-07-23T12:21:12;6.72;;;5.60;;
46455;SDS011;32154;47.160;8.120;2022-07-23T12:26:15;7.53;;;5.50;;
46455;SDS011;32154;47.160;8.120;2022-07-23T12:31:38;6.72;;;5.50;;
46455;SDS011;32154;47.160;8.120;2022-07-23T12:37:00;6.90;;;5.03;;
46455;SDS011;32154;47.160;8.120;2022-07-23T12:42:10;7.53;;;5.78;;
46455;SDS011;32154;47.160;8.120;2022-07-23T12:47:13;6.53;;;4.80;;
46455;SDS011;32154;47.160;8.120;2022-07-23T12:52:18;5.45;;;4.57;;
46455;SDS011;32154;47.160;8.120;2022-07-23T12:57:44;6.07;;;4.90;;
46455;SDS011;32154;47.160;8.120;2022-07-23T13:02:48;5.65;;;4.10;;
46455;SDS011;32154;47.160;8.120;2022-07-23T13:07:51;10.00;;;4.60;;
46455;SDS011;32154;47.160;8.120;2022-07-23T13:12:53;6.38;;;4.50;;
46455;SDS011;32154;47.160;8.120;2022-07-23T13:17:56;6.97;;;5.18;;
46455;SDS011;32154;47.160;8.120;2022-07-23T13:22:58;6.30;;;5.70;;
46455;SDS011;32154;47.160;8.120;2022-07-23T13:28:20;7.90;;;5.35;;
46455;SDS011;32154;47.160;8.120;2022-07-23T13:33:23;5.95;;;4.93;;
46455;SDS011;32154;47.160;8.120;2022-07-23T13:38:28;5.30;;;4.78;;
46455;SDS011;32154;47.160;8.120;2022-07-23T13:43:30;6.47;;;5.20;;
46455;SDS011;32154;47.160;8.120;2022-07-23T13:48:37;4.78;;;4.28;;
46455;SDS011;32154;47.160;8.120;2022-07-23T13:54:00;5.75;;;5.20;;
46455;SDS011;32154;47.160;8.120;2022-07-23T13:59:21;5.35;;;4.60;;
46455;SDS011;32154;47.160;8.120;2022-07-23T14:04:27;8.27;;;5.35;;
46455;SDS011;32154;47.160;8.120;2022-07-23T14:09:29;8.25;;;6.68;;
46455;SDS011;32154;47.160;8.120;2022-07-23T14:14:33;9.43;;;6.03;;
46455;SDS011;32154;47.160;8.120;2022-07-23T14:19:38;6.25;;;5.10;;
46455;SDS011;32154;47.160;8.120;2022-07-23T14:24:40;4.30;;;3.85;;
46455;SDS011;32154;47.160;8.120;2022-07-23T14:30:02;5.35;;;4.43;;
46455;SDS011;32154;47.160;8.120;2022-07-23T14:35:06;6.32;;;4.82;;
46455;SDS011;32154;47.160;8.120;2022-07-23T14:40:30;6.70;;;3.83;;
46455;SDS011;32154;47.160;8.120;2022-07-23T14:45:32;5.93;;;4.75;;
46455;SDS011;32154;47.160;8.120;2022-07-23T14:50:37;6.72;;;6.07;;
46455;SDS011;32154;47.160;8.120;2022-07-23T15:01:29;5.78;;;4.93;;
46455;SDS011;32154;47.160;8.120;2022-07-23T15:06:32;5.50;;;4.70;;
46455;SDS011;32154;47.160;8.120;2022-07-23T15:11:58;6.18;;;5.57;;
46455;SDS011;32154;47.160;8.120;2022-07-23T15:17:19;5.80;;;4.78;;
46455;SDS011;32154;47.160;8.120;2022-07-23T15:22:22;8.00;;;4.95;;
46455;SDS011;32154;47.160;8.120;2022-07-23T15:27:24;5.72;;;4.88;;
46455;SDS011;32154;47.160;8.120;2022-07-23T15:32:45;5.53;;;4.63;;
46455;SDS011;32154;47.160;8.120;2022-07-23T15:38:06;5.53;;;4.63;;
46455;SDS011;32154;47.160;8.120;2022-07-23T15:43:14;6.32;;;5.35;;
46455;SDS011;32154;47.160;8.120;2022-07-23T15:48:22;8.13;;;5.45;;
46455;SDS011;32154;47.160;8.120;2022-07-23T15:53:24;6.40;;;5.80;;
46455;SDS011;32154;47.160;8.120;2022-07-23T15:58:56;6.53;;;5.63;;
46455;SDS011;32154;47.160;8.120;2022-07-23T16:04:00;6.60;;;4.90;;
46455;SDS011;32154;47.160;8.120;2022-07-23T16:09:03;7.07;;;6.38;;
46455;SDS011;32154;47.160;8.120;2022-07-23T16:14:07;5.15;;;4.57;;
46455;SDS011;32154;47.160;8.120;2022-07-23T16:19:10;5.28;;;4.78;;
46455;SDS011;32154;47.160;8.120;2022-07-23T16:24:12;5.65;;;4.95;;
46455;SDS011;32154;47.160;8.120;2022-07-23T16:29:33;6.10;;;5.38;;
46455;SDS011;32154;47.160;8.120;2022-07-23T16:34:54;7.05;;;5.65;;
46455;SDS011;32154;47.160;8.120;2022-07-23T16:40:15;5.05;;;4.55;;
46455;SDS011;32154;47.160;8.120;2022-07-23T16:45:36;5.47;;;4.80;;
46455;SDS011;32154;47.160;8.120;2022-07-23T16:50:57;4.95;;;4.40;;
46455;SDS011;32154;47.160;8.120;2022-07-23T16:56:07;5.70;;;5.18;;
46455;SDS011;32154;47.160;8.120;2022-07-23T17:01:11;8.10;;;5.82;;
46455;SDS011;32154;47.160;8.120;2022-07-23T17:06:14;6.32;;;5.35;;
46455;SDS011;32154;47.160;8.120;2022-07-23T17:11:16;6.90;;;4.57;;
46455;SDS011;32154;47.160;8.120;2022-07-23T17:16:18;6.30;;;4.85;;
46455;SDS011;32154;47.160;8.120;2022-07-23T17:21:40;5.22;;;4.72;;
46455;SDS011;32154;47.160;8.120;2022-07-23T17:27:01;6.35;;;5.43;;
46455;SDS011;32154;47.160;8.120;2022-07-23T17:32:07;6.45;;;5.50;;
46455;SDS011;32154;47.160;8.120;2022-07-23T17:37:31;7.47;;;6.22;;
46455;SDS011;32154;47.160;8.120;2022-07-23T17:42:51;8.02;;;4.97;;
46455;SDS011;32154;47.160;8.120;2022-07-23T17:48:12;5.88;;;5.00;;
46455;SDS011;32154;47.160;8.120;2022-07-23T17:53:15;7.65;;;6.22;;
46455;SDS011;32154;47.160;8.120;2022-07-23T17:58:17;8.57;;;6.93;;
46455;SDS011;32154;47.160;8.120;2022-07-23T18:03:20;7.60;;;6.25;;
46455;SDS011;32154;47.160;8.120;2022-07-23T18:08:23;7.25;;;6.25;;
46455;SDS011;32154;47.160;8.120;2022-07-23T18:13:25;8.70;;;6.38;;
46455;SDS011;32154;47.160;8.120;2022-07-23T18:18:28;9.02;;;6.38;;
46455;SDS011;32154;47.160;8.120;2022-07-23T18:23:31;7.18;;;6.47;;
46455;SDS011;32154;47.160;8.120;2022-07-23T18:28:33;6.10;;;5.38;;
46455;SDS011;32154;47.160;8.120;2022-07-23T18:33:36;8.85;;;6.15;;
46455;SDS011;32154;47.160;8.120;2022-07-23T18:38:58;8.95;;;6.47;;
46455;SDS011;32154;47.160;8.120;2022-07-23T18:44:22;5.38;;;4.78;;
46455;SDS011;32154;47.160;8.120;2022-07-23T18:49:43;6.18;;;5.55;;
46455;SDS011;32154;47.160;8.120;2022-07-23T18:54:45;8.77;;;7.30;;
46455;SDS011;32154;47.160;8.120;2022-07-23T19:00:07;8.43;;;6.63;;
46455;SDS011;32154;47.160;8.120;2022-07-23T19:05:11;8.15;;;6.85;;
46455;SDS011;32154;47.160;8.120;2022-07-23T19:10:13;11.90;;;7.35;;
46455;SDS011;32154;47.160;8.120;2022-07-23T19:15:36;8.30;;;6.63;;
46455;SDS011;32154;47.160;8.120;2022-07-23T19:20:40;9.57;;;7.18;;
46455;SDS011;32154;47.160;8.120;2022-07-23T19:25:45;10.05;;;7.25;;
46455;SDS011;32154;47.160;8.120;2022-07-23T19:31:14;9.90;;;7.85;;
46455;SDS011;32154;47.160;8.120;2022-07-23T19:36:16;10.32;;;6.60;;
46455;SDS011;32154;47.160;8.120;2022-07-23T19:41:19;8.35;;;7.00;;
46455;SDS011;32154;47.160;8.120;2022-07-23T19:46:21;9.32;;;7.15;;
46455;SDS011;32154;47.160;8.120;2022-07-23T19:51:24;9.38;;;7.57;;
46455;SDS011;32154;47.160;8.120;2022-07-23T19:56:27;10.07;;;7.60;;
46455;SDS011;32154;47.160;8.120;2022-07-23T20:01:32;10.43;;;7.20;;
46455;SDS011;32154;47.160;8.120;2022-07-23T20:06:38;7.72;;;6.63;;
46455;SDS011;32154;47.160;8.120;2022-07-23T20:11:40;7.78;;;6.68;;
46455;SDS011;32154;47.160;8.120;2022-07-23T20:16:43;10.40;;;7.40;;
46455;SDS011;32154;47.160;8.120;2022-07-23T20:21:45;9.20;;;7.10;;
46455;SDS011;32154;47.160;8.120;2022-07-23T20:27:06;9.77;;;7.18;;
46455;SDS011;32154;47.160;8.120;2022-07-23T20:32:29;8.80;;;6.93;;
46455;SDS011;32154;47.160;8.120;2022-07-23T20:37:31;8.25;;;6.97;;
46455;SDS011;32154;47.160;8.120;2022-07-23T20:42:33;8.65;;;6.95;;
46455;SDS011;32154;47.160;8.120;2022-07-23T20:47:54;9.45;;;7.00;;
46455;SDS011;32154;47.160;8.120;2022-07-23T20:52:56;8.80;;;7.03;;
46455;SDS011;32154;47.160;8.120;2022-07-23T20:58:17;9.13;;;7.32;;
46455;SDS011;32154;47.160;8.120;2022-07-23T21:03:19;9.35;;;7.05;;
46455;SDS011;32154;47.160;8.120;2022-07-23T21:08:22;10.48;;;8.18;;
46455;SDS011;32154;47.160;8.120;2022-07-23T21:13:24;9.57;;;8.20;;
46455;SDS011;32154;47.160;8.120;2022-07-23T21:18:27;9.95;;;7.60;;
46455;SDS011;32154;47.160;8.120;2022-07-23T21:23:29;10.25;;;8.43;;
46455;SDS011;32154;47.160;8.120;2022-07-23T21:28:37;8.85;;;7.03;;
46455;SDS011;32154;47.160;8.120;2022-07-23T21:33:40;8.65;;;6.97;;
46455;SDS011;32154;47.160;8.120;2022-07-23T21:38:42;9.20;;;7.85;;
46455;SDS011;32154;47.160;8.120;2022-07-23T21:44:03;10.38;;;7.60;;
46455;SDS011;32154;47.160;8.120;2022-07-23T21:49:05;11.95;;;8.63;;
46455;SDS011;32154;47.160;8.120;2022-07-23T21:54:09;9.85;;;8.40;;
46455;SDS011;32154;47.160;8.120;2022-07-23T21:59:30;8.90;;;7.15;;
46455;SDS011;32154;47.160;8.120;2022-07-23T22:04:50;11.25;;;8.45;;
46455;SDS011;32154;47.160;8.120;2022-07-23T22:09:54;10.57;;;8.30;;
46455;SDS011;32154;47.160;8.120;2022-07-23T22:15:21;9.55;;;8.48;;
46455;SDS011;32154;47.160;8.120;2022-07-23T22:20:23;10.05;;;8.63;;
46455;SDS011;32154;47.160;8.120;2022-07-23T22:25:45;12.63;;;8.82;;
46455;SDS011;32154;47.160;8.120;2022-07-23T22:30:48;9.68;;;7.88;;
46455;SDS011;32154;47.160;8.120;2022-07-23T22:36:12;12.07;;;8.85;;
46455;SDS011;32154;47.160;8.120;2022-07-23T22:41:15;11.25;;;8.90;;
46455;SDS011;32154;47.160;8.120;2022-07-23T22:46:18;10.98;;;9.05;;
46455;SDS011;32154;47.160;8.120;2022-07-23T22:51:21;12.32;;;9.50;;
46455;SDS011;32154;47.160;8.120;2022-07-23T22:56:27;12.82;;;9.85;;
46455;SDS011;32154;47.160;8.120;2022-07-23T23:01:48;10.75;;;7.97;;
46455;SDS011;32154;47.160;8.120;2022-07-23T23:06:50;10.85;;;8.77;;
46455;SDS011;32154;47.160;8.120;2022-07-23T23:11:54;9.18;;;8.23;;
46455;SDS011;32154;47.160;8.120;2022-07-23T23:16:56;12.20;;;8.60;;
46455;SDS011;32154;47.160;8.120;2022-07-23T23:22:00;13.55;;;8.30;;
46455;SDS011;32154;47.160;8.120;2022-07-23T23:27:02;11.95;;;7.82;;
46455;SDS011;32154;47.160;8.120;2022-07-23T23:32:06;10.13;;;8.25;;
46455;SDS011;32154;47.160;8.120;2022-07-23T23:37:09;7.95;;;5.82;;
46455;SDS011;32154;47.160;8.120;2022-07-23T23:42:30;9.68;;;8.00;;
46455;SDS011;32154;47.160;8.120;2022-07-23T23:47:32;10.90;;;7.53;;
46455;SDS011;32154;47.160;8.120;2022-07-23T23:52:35;9.75;;;8.18;;
46455;SDS011;32154;47.160;8.120;2022-07-23T23:57:37;11.65;;;8.98;;
